sensor_id;sensor_type;location;lat;lon;timestamp;pressure;altitude;pressure_sealevel;temperature
9985;BMP180;16737;50.932;6.780;2023-10-31T00:01:53;98386.00;;;16.00
9985;BMP180;16737;50.932;6.780;2023-10-31T00:04:21;98395.00;;;16.00
9985;BMP180;16737;50.932;6.780;2023-10-31T00:06:51;98393.00;;;16.00
9985;BMP180;16737;50.932;6.780;2023-10-31T00:09:18;98420.00;;;16.00
9985;BMP180;16737;50.932;6.780;2023-10-31T00:11:48;98414.00;;;16.00
9985;BMP180;16737;50.932;6.780;2023-10-31T00:14:16;98424.00;;;16.00
9985;BMP180;16737;50.932;6.780;2023-10-31T00:16:49;98424.00;;;16.00
9985;BMP180;16737;50.932;6.780;2023-10-31T00:19:17;98438.00;;;16.00
9985;BMP180;16737;50.932;6.780;2023-10-31T00:21:45;98439.00;;;16.00
9985;BMP180;16737;50.932;6.780;2023-10-31T00:24:12;98427.00;;;16.00
9985;BMP180;16737;50.932;6.780;2023-10-31T00:26:39;98440.00;;;16.00
9985;BMP180;16737;50.932;6.780;2023-10-31T00:29:06;98438.00;;;15.90
9985;BMP180;16737;50.932;6.780;2023-10-31T00:31:35;98456.00;;;15.90
9985;BMP180;16737;50.932;6.780;2023-10-31T00:36:51;98449.00;;;15.80
9985;BMP180;16737;50.932;6.780;2023-10-31T00:39:18;98440.00;;;15.80
9985;BMP180;16737;50.932;6.780;2023-10-31T00:41:46;98439.00;;;15.80
9985;BMP180;16737;50.932;6.780;2023-10-31T00:44:13;98444.00;;;15.80
9985;BMP180;16737;50.932;6.780;2023-10-31T00:46:41;98446.00;;;15.80
9985;BMP180;16737;50.932;6.780;2023-10-31T00:49:09;98460.00;;;15.80
9985;BMP180;16737;50.932;6.780;2023-10-31T00:51:36;98464.00;;;15.70
9985;BMP180;16737;50.932;6.780;2023-10-31T00:54:17;98465.00;;;15.70
9985;BMP180;16737;50.932;6.780;2023-10-31T00:56:45;98475.00;;;15.70
9985;BMP180;16737;50.932;6.780;2023-10-31T00:59:12;98477.00;;;15.70
9985;BMP180;16737;50.932;6.780;2023-10-31T01:01:42;98466.00;;;15.70
9985;BMP180;16737;50.932;6.780;2023-10-31T01:04:22;98463.00;;;15.60
9985;BMP180;16737;50.932;6.780;2023-10-31T01:06:50;98477.00;;;15.70
9985;BMP180;16737;50.932;6.780;2023-10-31T01:09:18;98480.00;;;15.60
9985;BMP180;16737;50.932;6.780;2023-10-31T01:11:53;98477.00;;;15.60
9985;BMP180;16737;50.932;6.780;2023-10-31T01:14:21;98477.00;;;15.60
9985;BMP180;16737;50.932;6.780;2023-10-31T01:16:49;98481.00;;;15.60
9985;BMP180;16737;50.932;6.780;2023-10-31T01:19:18;98486.00;;;15.60
9985;BMP180;16737;50.932;6.780;2023-10-31T01:21:46;98483.00;;;15.60
9985;BMP180;16737;50.932;6.780;2023-10-31T01:24:13;98478.00;;;15.60
9985;BMP180;16737;50.932;6.780;2023-10-31T01:26:40;98482.00;;;15.50
9985;BMP180;16737;50.932;6.780;2023-10-31T01:29:08;98479.00;;;15.50
9985;BMP180;16737;50.932;6.780;2023-10-31T01:31:35;98479.00;;;15.50
9985;BMP180;16737;50.932;6.780;2023-10-31T01:34:04;98487.00;;;15.50
9985;BMP180;16737;50.932;6.780;2023-10-31T01:36:31;98489.00;;;15.50
9985;BMP180;16737;50.932;6.780;2023-10-31T01:39:01;98486.00;;;15.50
9985;BMP180;16737;50.932;6.780;2023-10-31T01:41:28;98484.00;;;15.50
9985;BMP180;16737;50.932;6.780;2023-10-31T01:43:56;98482.00;;;15.50
9985;BMP180;16737;50.932;6.780;2023-10-31T01:46:23;98484.00;;;15.50
9985;BMP180;16737;50.932;6.780;2023-10-31T01:48:50;98491.00;;;15.50
9985;BMP180;16737;50.932;6.780;2023-10-31T01:51:19;98488.00;;;15.50
9985;BMP180;16737;50.932;6.780;2023-10-31T01:53:47;98494.00;;;15.50
9985;BMP180;16737;50.932;6.780;2023-10-31T01:56:15;98492.00;;;15.50
9985;BMP180;16737;50.932;6.780;2023-10-31T01:58:42;98466.00;;;15.50
9985;BMP180;16737;50.932;6.780;2023-10-31T02:01:09;98486.00;;;15.50
9985;BMP180;16737;50.932;6.780;2023-10-31T02:03:36;98484.00;;;15.50
9985;BMP180;16737;50.932;6.780;2023-10-31T02:06:05;98485.00;;;15.40
9985;BMP180;16737;50.932;6.780;2023-10-31T02:08:34;98488.00;;;15.40
9985;BMP180;16737;50.932;6.780;2023-10-31T02:11:01;98492.00;;;15.40
9985;BMP180;16737;50.932;6.780;2023-10-31T02:13:29;98489.00;;;15.40
9985;BMP180;16737;50.932;6.780;2023-10-31T02:15:57;98498.00;;;15.50
9985;BMP180;16737;50.932;6.780;2023-10-31T02:18:24;98489.00;;;15.40
9985;BMP180;16737;50.932;6.780;2023-10-31T02:20:51;98470.00;;;15.40
9985;BMP180;16737;50.932;6.780;2023-10-31T02:23:20;98482.00;;;15.40
9985;BMP180;16737;50.932;6.780;2023-10-31T02:25:53;98487.00;;;15.40
9985;BMP180;16737;50.932;6.780;2023-10-31T02:28:28;98477.00;;;15.40
9985;BMP180;16737;50.932;6.780;2023-10-31T02:30:56;98484.00;;;15.30
9985;BMP180;16737;50.932;6.780;2023-10-31T02:33:23;98480.00;;;15.30
9985;BMP180;16737;50.932;6.780;2023-10-31T02:35:53;98473.00;;;15.30
9985;BMP180;16737;50.932;6.780;2023-10-31T02:38:21;98477.00;;;15.20
9985;BMP180;16737;50.932;6.780;2023-10-31T02:40:51;98474.00;;;15.20
9985;BMP180;16737;50.932;6.780;2023-10-31T02:43:18;98471.00;;;15.20
9985;BMP180;16737;50.932;6.780;2023-10-31T02:45:45;98477.00;;;15.20
9985;BMP180;16737;50.932;6.780;2023-10-31T02:48:12;98484.00;;;15.20
9985;BMP180;16737;50.932;6.780;2023-10-31T02:50:39;98473.00;;;15.10
9985;BMP180;16737;50.932;6.780;2023-10-31T02:53:06;98484.00;;;15.10
9985;BMP180;16737;50.932;6.780;2023-10-31T02:55:44;98474.00;;;15.10
9985;BMP180;16737;50.932;6.780;2023-10-31T02:58:11;98472.00;;;15.10
9985;BMP180;16737;50.932;6.780;2023-10-31T03:00:38;98479.00;;;15.10
9985;BMP180;16737;50.932;6.780;2023-10-31T03:03:06;98480.00;;;15.10
9985;BMP180;16737;50.932;6.780;2023-10-31T03:05:33;98490.00;;;15.10
9985;BMP180;16737;50.932;6.780;2023-10-31T03:08:00;98491.00;;;15.10
9985;BMP180;16737;50.932;6.780;2023-10-31T03:10:27;98496.00;;;15.10
9985;BMP180;16737;50.932;6.780;2023-10-31T03:12:59;98506.00;;;15.10
9985;BMP180;16737;50.932;6.780;2023-10-31T03:15:26;98512.00;;;15.10
9985;BMP180;16737;50.932;6.780;2023-10-31T03:17:53;98512.00;;;15.10
9985;BMP180;16737;50.932;6.780;2023-10-31T03:20:20;98526.00;;;15.10
9985;BMP180;16737;50.932;6.780;2023-10-31T03:22:47;98519.00;;;15.20
9985;BMP180;16737;50.932;6.780;2023-10-31T03:25:14;98521.00;;;15.20
9985;BMP180;16737;50.932;6.780;2023-10-31T03:27:41;98515.00;;;15.20
9985;BMP180;16737;50.932;6.780;2023-10-31T03:30:11;98518.00;;;15.20
9985;BMP180;16737;50.932;6.780;2023-10-31T03:32:38;98519.00;;;15.20
9985;BMP180;16737;50.932;6.780;2023-10-31T03:35:08;98535.00;;;15.30
9985;BMP180;16737;50.932;6.780;2023-10-31T03:37:36;98526.00;;;15.30
9985;BMP180;16737;50.932;6.780;2023-10-31T03:40:08;98530.00;;;15.30
9985;BMP180;16737;50.932;6.780;2023-10-31T03:42:35;98519.00;;;15.30
9985;BMP180;16737;50.932;6.780;2023-10-31T03:45:03;98548.00;;;15.30
9985;BMP180;16737;50.932;6.780;2023-10-31T03:47:31;98540.00;;;15.30
9985;BMP180;16737;50.932;6.780;2023-10-31T03:49:58;98548.00;;;15.30
9985;BMP180;16737;50.932;6.780;2023-10-31T03:52:27;98548.00;;;15.30
9985;BMP180;16737;50.932;6.780;2023-10-31T03:54:55;98549.00;;;15.40
9985;BMP180;16737;50.932;6.780;2023-10-31T03:57:22;98561.00;;;15.40
9985;BMP180;16737;50.932;6.780;2023-10-31T03:59:49;98556.00;;;15.40
9985;BMP180;16737;50.932;6.780;2023-10-31T04:02:19;98562.00;;;15.40
9985;BMP180;16737;50.932;6.780;2023-10-31T04:04:48;98563.00;;;15.40
9985;BMP180;16737;50.932;6.780;2023-10-31T04:07:15;98565.00;;;15.40
9985;BMP180;16737;50.932;6.780;2023-10-31T04:09:45;98566.00;;;15.40
9985;BMP180;16737;50.932;6.780;2023-10-31T04:12:12;98558.00;;;15.40
9985;BMP180;16737;50.932;6.780;2023-10-31T04:14:39;98568.00;;;15.40
9985;BMP180;16737;50.932;6.780;2023-10-31T04:17:06;98574.00;;;15.40
9985;BMP180;16737;50.932;6.780;2023-10-31T04:19:33;98569.00;;;15.40
9985;BMP180;16737;50.932;6.780;2023-10-31T04:22:05;98573.00;;;15.50
9985;BMP180;16737;50.932;6.780;2023-10-31T04:24:32;98567.00;;;15.50
9985;BMP180;16737;50.932;6.780;2023-10-31T04:26:59;98574.00;;;15.50
9985;BMP180;16737;50.932;6.780;2023-10-31T04:29:26;98552.00;;;15.50
9985;BMP180;16737;50.932;6.780;2023-10-31T04:31:56;98575.00;;;15.50
9985;BMP180;16737;50.932;6.780;2023-10-31T04:34:23;98581.00;;;15.50
9985;BMP180;16737;50.932;6.780;2023-10-31T04:36:50;98570.00;;;15.50
9985;BMP180;16737;50.932;6.780;2023-10-31T04:39:28;98577.00;;;15.50
9985;BMP180;16737;50.932;6.780;2023-10-31T04:41:55;98585.00;;;15.50
9985;BMP180;16737;50.932;6.780;2023-10-31T04:44:23;98598.00;;;15.50
9985;BMP180;16737;50.932;6.780;2023-10-31T04:46:53;98591.00;;;15.50
9985;BMP180;16737;50.932;6.780;2023-10-31T04:49:23;98572.00;;;15.50
9985;BMP180;16737;50.932;6.780;2023-10-31T04:51:50;98598.00;;;15.50
9985;BMP180;16737;50.932;6.780;2023-10-31T04:54:18;98605.00;;;15.50
9985;BMP180;16737;50.932;6.780;2023-10-31T04:56:47;98601.00;;;15.50
9985;BMP180;16737;50.932;6.780;2023-10-31T04:59:14;98601.00;;;15.50
9985;BMP180;16737;50.932;6.780;2023-10-31T05:01:41;98602.00;;;15.50
9985;BMP180;16737;50.932;6.780;2023-10-31T05:04:08;98602.00;;;15.50
9985;BMP180;16737;50.932;6.780;2023-10-31T05:06:35;98607.00;;;15.50
9985;BMP180;16737;50.932;6.780;2023-10-31T05:09:03;98613.00;;;15.50
9985;BMP180;16737;50.932;6.780;2023-10-31T05:11:32;98607.00;;;15.50
9985;BMP180;16737;50.932;6.780;2023-10-31T05:13:59;98620.00;;;15.40
9985;BMP180;16737;50.932;6.780;2023-10-31T05:16:26;98617.00;;;15.40
9985;BMP180;16737;50.932;6.780;2023-10-31T05:18:53;98625.00;;;15.40
9985;BMP180;16737;50.932;6.780;2023-10-31T05:21:20;98636.00;;;15.40
9985;BMP180;16737;50.932;6.780;2023-10-31T05:23:49;98620.00;;;15.40
9985;BMP180;16737;50.932;6.780;2023-10-31T05:26:25;98631.00;;;15.40
9985;BMP180;16737;50.932;6.780;2023-10-31T05:28:55;98632.00;;;15.40
9985;BMP180;16737;50.932;6.780;2023-10-31T05:31:23;98637.00;;;15.40
9985;BMP180;16737;50.932;6.780;2023-10-31T05:33:50;98643.00;;;15.40
9985;BMP180;16737;50.932;6.780;2023-10-31T05:36:19;98636.00;;;15.40
9985;BMP180;16737;50.932;6.780;2023-10-31T05:38:46;98637.00;;;15.40
9985;BMP180;16737;50.932;6.780;2023-10-31T05:41:17;98652.00;;;15.40
9985;BMP180;16737;50.932;6.780;2023-10-31T05:43:46;98654.00;;;15.40
9985;BMP180;16737;50.932;6.780;2023-10-31T05:46:22;98638.00;;;15.40
9985;BMP180;16737;50.932;6.780;2023-10-31T05:48:51;98655.00;;;15.40
9985;BMP180;16737;50.932;6.780;2023-10-31T05:51:19;98657.00;;;15.40
9985;BMP180;16737;50.932;6.780;2023-10-31T05:53:54;98656.00;;;15.40
9985;BMP180;16737;50.932;6.780;2023-10-31T05:56:21;98662.00;;;15.40
9985;BMP180;16737;50.932;6.780;2023-10-31T05:58:48;98658.00;;;15.40
9985;BMP180;16737;50.932;6.780;2023-10-31T06:01:15;98678.00;;;15.40
9985;BMP180;16737;50.932;6.780;2023-10-31T06:03:44;98669.00;;;15.40
9985;BMP180;16737;50.932;6.780;2023-10-31T06:06:11;98676.00;;;15.40
9985;BMP180;16737;50.932;6.780;2023-10-31T06:08:38;98677.00;;;15.40
9985;BMP180;16737;50.932;6.780;2023-10-31T06:11:06;98681.00;;;15.40
9985;BMP180;16737;50.932;6.780;2023-10-31T06:13:34;98679.00;;;15.40
9985;BMP180;16737;50.932;6.780;2023-10-31T06:16:02;98698.00;;;15.40
9985;BMP180;16737;50.932;6.780;2023-10-31T06:18:29;98701.00;;;15.40
9985;BMP180;16737;50.932;6.780;2023-10-31T06:20:57;98705.00;;;15.30
9985;BMP180;16737;50.932;6.780;2023-10-31T06:23:24;98704.00;;;15.30
9985;BMP180;16737;50.932;6.780;2023-10-31T06:25:51;98702.00;;;15.30
9985;BMP180;16737;50.932;6.780;2023-10-31T06:28:18;98717.00;;;15.30
9985;BMP180;16737;50.932;6.780;2023-10-31T06:30:45;98710.00;;;15.30
9985;BMP180;16737;50.932;6.780;2023-10-31T06:33:12;98713.00;;;15.30
9985;BMP180;16737;50.932;6.780;2023-10-31T06:35:39;98706.00;;;15.30
9985;BMP180;16737;50.932;6.780;2023-10-31T06:38:08;98720.00;;;15.30
9985;BMP180;16737;50.932;6.780;2023-10-31T06:40:35;98726.00;;;15.30
9985;BMP180;16737;50.932;6.780;2023-10-31T06:43:02;98731.00;;;15.30
9985;BMP180;16737;50.932;6.780;2023-10-31T06:45:29;98731.00;;;15.30
9985;BMP180;16737;50.932;6.780;2023-10-31T06:47:56;98746.00;;;15.30
9985;BMP180;16737;50.932;6.780;2023-10-31T06:50:24;98756.00;;;15.30
9985;BMP180;16737;50.932;6.780;2023-10-31T06:52:57;98752.00;;;15.30
9985;BMP180;16737;50.932;6.780;2023-10-31T06:55:26;98759.00;;;15.30
9985;BMP180;16737;50.932;6.780;2023-10-31T06:57:53;98754.00;;;15.30
9985;BMP180;16737;50.932;6.780;2023-10-31T07:00:20;98752.00;;;15.30
9985;BMP180;16737;50.932;6.780;2023-10-31T07:02:47;98753.00;;;15.30
9985;BMP180;16737;50.932;6.780;2023-10-31T07:05:15;98758.00;;;15.20
9985;BMP180;16737;50.932;6.780;2023-10-31T07:07:42;98763.00;;;15.20
9985;BMP180;16737;50.932;6.780;2023-10-31T07:10:09;98760.00;;;15.20
9985;BMP180;16737;50.932;6.780;2023-10-31T07:12:38;98754.00;;;15.20
9985;BMP180;16737;50.932;6.780;2023-10-31T07:15:07;98762.00;;;15.20
9985;BMP180;16737;50.932;6.780;2023-10-31T07:17:34;98770.00;;;15.20
9985;BMP180;16737;50.932;6.780;2023-10-31T07:20:02;98768.00;;;15.20
9985;BMP180;16737;50.932;6.780;2023-10-31T07:22:29;98775.00;;;15.20
9985;BMP180;16737;50.932;6.780;2023-10-31T07:24:57;98777.00;;;15.20
9985;BMP180;16737;50.932;6.780;2023-10-31T07:27:25;98769.00;;;15.20
9985;BMP180;16737;50.932;6.780;2023-10-31T07:29:53;98781.00;;;15.30
9985;BMP180;16737;50.932;6.780;2023-10-31T07:32:20;98778.00;;;15.30
9985;BMP180;16737;50.932;6.780;2023-10-31T07:34:48;98776.00;;;15.30
9985;BMP180;16737;50.932;6.780;2023-10-31T07:37:14;98788.00;;;15.30
9985;BMP180;16737;50.932;6.780;2023-10-31T07:39:42;98779.00;;;15.30
9985;BMP180;16737;50.932;6.780;2023-10-31T07:42:09;98784.00;;;15.30
9985;BMP180;16737;50.932;6.780;2023-10-31T07:44:36;98776.00;;;15.30
9985;BMP180;16737;50.932;6.780;2023-10-31T07:47:05;98778.00;;;15.30
9985;BMP180;16737;50.932;6.780;2023-10-31T07:49:32;98784.00;;;15.30
9985;BMP180;16737;50.932;6.780;2023-10-31T07:51:59;98783.00;;;15.40
9985;BMP180;16737;50.932;6.780;2023-10-31T07:54:26;98786.00;;;15.40
9985;BMP180;16737;50.932;6.780;2023-10-31T07:56:53;98792.00;;;15.40
9985;BMP180;16737;50.932;6.780;2023-10-31T07:59:21;98795.00;;;15.40
9985;BMP180;16737;50.932;6.780;2023-10-31T08:01:50;98787.00;;;15.50
9985;BMP180;16737;50.932;6.780;2023-10-31T08:04:19;98794.00;;;15.50
9985;BMP180;16737;50.932;6.780;2023-10-31T08:06:50;98802.00;;;15.50
9985;BMP180;16737;50.932;6.780;2023-10-31T08:09:17;98802.00;;;15.50
9985;BMP180;16737;50.932;6.780;2023-10-31T08:11:44;98815.00;;;15.60
9985;BMP180;16737;50.932;6.780;2023-10-31T08:14:11;98813.00;;;15.60
9985;BMP180;16737;50.932;6.780;2023-10-31T08:16:38;98820.00;;;15.60
9985;BMP180;16737;50.932;6.780;2023-10-31T08:19:08;98824.00;;;15.60
9985;BMP180;16737;50.932;6.780;2023-10-31T08:21:39;98826.00;;;15.60
9985;BMP180;16737;50.932;6.780;2023-10-31T08:24:06;98825.00;;;15.60
9985;BMP180;16737;50.932;6.780;2023-10-31T08:26:34;98835.00;;;15.70
9985;BMP180;16737;50.932;6.780;2023-10-31T08:29:01;98839.00;;;15.70
9985;BMP180;16737;50.932;6.780;2023-10-31T08:31:31;98844.00;;;15.70
9985;BMP180;16737;50.932;6.780;2023-10-31T08:33:58;98844.00;;;15.70
9985;BMP180;16737;50.932;6.780;2023-10-31T08:36:25;98851.00;;;15.70
9985;BMP180;16737;50.932;6.780;2023-10-31T08:38:54;98850.00;;;15.60
9985;BMP180;16737;50.932;6.780;2023-10-31T08:41:21;98851.00;;;15.70
9985;BMP180;16737;50.932;6.780;2023-10-31T08:43:48;98851.00;;;15.70
9985;BMP180;16737;50.932;6.780;2023-10-31T08:46:15;98858.00;;;15.70
9985;BMP180;16737;50.932;6.780;2023-10-31T08:48:43;98868.00;;;15.70
9985;BMP180;16737;50.932;6.780;2023-10-31T08:51:10;98871.00;;;15.80
9985;BMP180;16737;50.932;6.780;2023-10-31T08:53:37;98867.00;;;15.80
9985;BMP180;16737;50.932;6.780;2023-10-31T08:56:06;98881.00;;;15.90
9985;BMP180;16737;50.932;6.780;2023-10-31T08:58:37;98887.00;;;15.90
9985;BMP180;16737;50.932;6.780;2023-10-31T09:01:07;98880.00;;;16.00
9985;BMP180;16737;50.932;6.780;2023-10-31T09:03:34;98878.00;;;16.00
9985;BMP180;16737;50.932;6.780;2023-10-31T09:06:02;98884.00;;;16.10
9985;BMP180;16737;50.932;6.780;2023-10-31T09:08:29;98881.00;;;16.10
9985;BMP180;16737;50.932;6.780;2023-10-31T09:10:56;98886.00;;;16.10
9985;BMP180;16737;50.932;6.780;2023-10-31T09:13:25;98890.00;;;16.20
9985;BMP180;16737;50.932;6.780;2023-10-31T09:15:52;98894.00;;;16.20
9985;BMP180;16737;50.932;6.780;2023-10-31T09:18:19;98899.00;;;16.30
9985;BMP180;16737;50.932;6.780;2023-10-31T09:20:46;98911.00;;;16.40
9985;BMP180;16737;50.932;6.780;2023-10-31T09:23:13;98909.00;;;16.40
9985;BMP180;16737;50.932;6.780;2023-10-31T09:25:40;98914.00;;;16.50
9985;BMP180;16737;50.932;6.780;2023-10-31T09:28:07;98918.00;;;16.50
9985;BMP180;16737;50.932;6.780;2023-10-31T09:30:36;98921.00;;;16.50
9985;BMP180;16737;50.932;6.780;2023-10-31T09:33:06;98920.00;;;16.50
9985;BMP180;16737;50.932;6.780;2023-10-31T09:35:33;98927.00;;;16.60
9985;BMP180;16737;50.932;6.780;2023-10-31T09:38:00;98932.00;;;16.60
9985;BMP180;16737;50.932;6.780;2023-10-31T09:40:29;98934.00;;;16.70
9985;BMP180;16737;50.932;6.780;2023-10-31T09:42:58;98941.00;;;16.70
9985;BMP180;16737;50.932;6.780;2023-10-31T09:45:25;98947.00;;;16.80
9985;BMP180;16737;50.932;6.780;2023-10-31T09:47:54;98947.00;;;16.90
9985;BMP180;16737;50.932;6.780;2023-10-31T09:50:25;98957.00;;;17.00
9985;BMP180;16737;50.932;6.780;2023-10-31T09:52:53;98960.00;;;17.10
9985;BMP180;16737;50.932;6.780;2023-10-31T09:55:22;98962.00;;;17.20
9985;BMP180;16737;50.932;6.780;2023-10-31T09:57:53;98962.00;;;17.30
9985;BMP180;16737;50.932;6.780;2023-10-31T10:00:21;98963.00;;;17.50
9985;BMP180;16737;50.932;6.780;2023-10-31T10:02:49;98967.00;;;17.60
9985;BMP180;16737;50.932;6.780;2023-10-31T10:05:24;98973.00;;;17.70
9985;BMP180;16737;50.932;6.780;2023-10-31T10:07:55;98982.00;;;17.80
9985;BMP180;16737;50.932;6.780;2023-10-31T10:10:22;98986.00;;;17.80
9985;BMP180;16737;50.932;6.780;2023-10-31T10:12:51;98983.00;;;17.90
9985;BMP180;16737;50.932;6.780;2023-10-31T10:15:19;98983.00;;;17.90
9985;BMP180;16737;50.932;6.780;2023-10-31T10:17:49;98992.00;;;17.90
9985;BMP180;16737;50.932;6.780;2023-10-31T10:20:18;98980.00;;;17.90
9985;BMP180;16737;50.932;6.780;2023-10-31T10:22:48;98988.00;;;17.90
9985;BMP180;16737;50.932;6.780;2023-10-31T10:25:18;98997.00;;;17.80
9985;BMP180;16737;50.932;6.780;2023-10-31T10:27:46;99004.00;;;17.80
9985;BMP180;16737;50.932;6.780;2023-10-31T10:30:15;98998.00;;;17.80
9985;BMP180;16737;50.932;6.780;2023-10-31T10:32:42;99006.00;;;17.80
9985;BMP180;16737;50.932;6.780;2023-10-31T10:35:10;99008.00;;;17.80
9985;BMP180;16737;50.932;6.780;2023-10-31T10:37:38;98994.00;;;17.80
9985;BMP180;16737;50.932;6.780;2023-10-31T10:40:11;99014.00;;;17.90
9985;BMP180;16737;50.932;6.780;2023-10-31T10:42:45;98995.00;;;17.90
9985;BMP180;16737;50.932;6.780;2023-10-31T10:45:15;98999.00;;;18.00
9985;BMP180;16737;50.932;6.780;2023-10-31T10:47:46;99011.00;;;18.10
9985;BMP180;16737;50.932;6.780;2023-10-31T10:50:15;98996.00;;;18.20
9985;BMP180;16737;50.932;6.780;2023-10-31T10:52:55;99025.00;;;18.30
9985;BMP180;16737;50.932;6.780;2023-10-31T10:55:33;99032.00;;;18.30
9985;BMP180;16737;50.932;6.780;2023-10-31T10:58:22;99019.00;;;18.40
9985;BMP180;16737;50.932;6.780;2023-10-31T11:00:50;99028.00;;;18.50
9985;BMP180;16737;50.932;6.780;2023-10-31T11:03:29;99031.00;;;18.50
9985;BMP180;16737;50.932;6.780;2023-10-31T11:05:56;99027.00;;;18.50
9985;BMP180;16737;50.932;6.780;2023-10-31T11:08:27;99032.00;;;18.50
9985;BMP180;16737;50.932;6.780;2023-10-31T11:10:57;99023.00;;;18.50
9985;BMP180;16737;50.932;6.780;2023-10-31T11:13:25;99027.00;;;18.50
9985;BMP180;16737;50.932;6.780;2023-10-31T11:16:02;99026.00;;;18.50
9985;BMP180;16737;50.932;6.780;2023-10-31T11:18:31;99025.00;;;18.50
9985;BMP180;16737;50.932;6.780;2023-10-31T11:21:00;99028.00;;;18.40
9985;BMP180;16737;50.932;6.780;2023-10-31T11:23:28;99029.00;;;18.40
9985;BMP180;16737;50.932;6.780;2023-10-31T11:25:56;99039.00;;;18.40
9985;BMP180;16737;50.932;6.780;2023-10-31T11:28:25;99032.00;;;18.30
9985;BMP180;16737;50.932;6.780;2023-10-31T11:30:57;99037.00;;;18.30
9985;BMP180;16737;50.932;6.780;2023-10-31T11:33:26;99047.00;;;18.30
9985;BMP180;16737;50.932;6.780;2023-10-31T11:36:01;99009.00;;;18.20
9985;BMP180;16737;50.932;6.780;2023-10-31T11:38:34;99057.00;;;18.20
9985;BMP180;16737;50.932;6.780;2023-10-31T11:41:06;99037.00;;;18.20
9985;BMP180;16737;50.932;6.780;2023-10-31T11:43:53;99048.00;;;18.20
9985;BMP180;16737;50.932;6.780;2023-10-31T11:46:22;99055.00;;;18.20
9985;BMP180;16737;50.932;6.780;2023-10-31T11:48:52;99061.00;;;18.20
9985;BMP180;16737;50.932;6.780;2023-10-31T11:51:23;99051.00;;;18.20
9985;BMP180;16737;50.932;6.780;2023-10-31T11:53:50;99064.00;;;18.30
9985;BMP180;16737;50.932;6.780;2023-10-31T11:56:21;99059.00;;;18.30
9985;BMP180;16737;50.932;6.780;2023-10-31T11:59:02;99059.00;;;18.30
9985;BMP180;16737;50.932;6.780;2023-10-31T12:01:30;99055.00;;;18.30
9985;BMP180;16737;50.932;6.780;2023-10-31T12:03:57;99069.00;;;18.20
9985;BMP180;16737;50.932;6.780;2023-10-31T12:06:24;99058.00;;;18.20
9985;BMP180;16737;50.932;6.780;2023-10-31T12:08:51;99057.00;;;18.20
9985;BMP180;16737;50.932;6.780;2023-10-31T12:11:22;99050.00;;;18.30
9985;BMP180;16737;50.932;6.780;2023-10-31T12:13:55;99065.00;;;18.30
9985;BMP180;16737;50.932;6.780;2023-10-31T12:16:27;99047.00;;;18.30
9985;BMP180;16737;50.932;6.780;2023-10-31T12:18:57;99073.00;;;18.30
9985;BMP180;16737;50.932;6.780;2023-10-31T12:21:37;99064.00;;;18.30
9985;BMP180;16737;50.932;6.780;2023-10-31T12:24:07;99060.00;;;18.30
9985;BMP180;16737;50.932;6.780;2023-10-31T12:26:43;99052.00;;;18.30
9985;BMP180;16737;50.932;6.780;2023-10-31T12:29:15;99070.00;;;18.30
9985;BMP180;16737;50.932;6.780;2023-10-31T12:31:44;99065.00;;;18.30
9985;BMP180;16737;50.932;6.780;2023-10-31T12:34:13;99063.00;;;18.30
9985;BMP180;16737;50.932;6.780;2023-10-31T12:36:40;99057.00;;;18.30
9985;BMP180;16737;50.932;6.780;2023-10-31T12:39:12;99058.00;;;18.30
9985;BMP180;16737;50.932;6.780;2023-10-31T12:41:41;99051.00;;;18.40
9985;BMP180;16737;50.932;6.780;2023-10-31T12:44:11;99068.00;;;18.40
9985;BMP180;16737;50.932;6.780;2023-10-31T12:46:41;99058.00;;;18.40
9985;BMP180;16737;50.932;6.780;2023-10-31T12:49:19;99057.00;;;18.40
9985;BMP180;16737;50.932;6.780;2023-10-31T12:51:57;99030.00;;;18.40
9985;BMP180;16737;50.932;6.780;2023-10-31T12:54:29;99053.00;;;18.40
9985;BMP180;16737;50.932;6.780;2023-10-31T12:57:01;99062.00;;;18.40
9985;BMP180;16737;50.932;6.780;2023-10-31T12:59:30;99057.00;;;18.50
9985;BMP180;16737;50.932;6.780;2023-10-31T13:02:00;99056.00;;;18.50
9985;BMP180;16737;50.932;6.780;2023-10-31T13:04:31;99055.00;;;18.50
9985;BMP180;16737;50.932;6.780;2023-10-31T13:07:00;99064.00;;;18.60
9985;BMP180;16737;50.932;6.780;2023-10-31T13:09:30;99053.00;;;18.70
9985;BMP180;16737;50.932;6.780;2023-10-31T13:12:09;99054.00;;;18.70
9985;BMP180;16737;50.932;6.780;2023-10-31T13:14:37;99057.00;;;18.80
9985;BMP180;16737;50.932;6.780;2023-10-31T13:17:15;99060.00;;;18.90
9985;BMP180;16737;50.932;6.780;2023-10-31T13:19:43;99051.00;;;18.90
9985;BMP180;16737;50.932;6.780;2023-10-31T13:22:10;99054.00;;;19.00
9985;BMP180;16737;50.932;6.780;2023-10-31T13:24:37;99053.00;;;19.00
9985;BMP180;16737;50.932;6.780;2023-10-31T13:27:07;99056.00;;;19.10
9985;BMP180;16737;50.932;6.780;2023-10-31T13:29:41;99056.00;;;19.10
9985;BMP180;16737;50.932;6.780;2023-10-31T13:32:10;99064.00;;;19.20
9985;BMP180;16737;50.932;6.780;2023-10-31T13:34:37;99062.00;;;19.20
9985;BMP180;16737;50.932;6.780;2023-10-31T13:37:13;99064.00;;;19.20
9985;BMP180;16737;50.932;6.780;2023-10-31T13:39:40;99060.00;;;19.20
9985;BMP180;16737;50.932;6.780;2023-10-31T13:42:09;99064.00;;;19.20
9985;BMP180;16737;50.932;6.780;2023-10-31T13:44:36;99059.00;;;19.30
9985;BMP180;16737;50.932;6.780;2023-10-31T13:47:03;99059.00;;;19.30
9985;BMP180;16737;50.932;6.780;2023-10-31T13:49:31;99055.00;;;19.30
9985;BMP180;16737;50.932;6.780;2023-10-31T13:51:58;99053.00;;;19.40
9985;BMP180;16737;50.932;6.780;2023-10-31T13:54:25;99052.00;;;19.40
9985;BMP180;16737;50.932;6.780;2023-10-31T13:56:53;99054.00;;;19.40
9985;BMP180;16737;50.932;6.780;2023-10-31T13:59:35;99067.00;;;19.50
9985;BMP180;16737;50.932;6.780;2023-10-31T14:02:02;99036.00;;;19.50
9985;BMP180;16737;50.932;6.780;2023-10-31T14:04:30;99063.00;;;19.60
9985;BMP180;16737;50.932;6.780;2023-10-31T14:06:57;99060.00;;;19.60
9985;BMP180;16737;50.932;6.780;2023-10-31T14:09:24;99064.00;;;19.60
9985;BMP180;16737;50.932;6.780;2023-10-31T14:11:51;99061.00;;;19.60
9985;BMP180;16737;50.932;6.780;2023-10-31T14:14:18;99068.00;;;19.60
9985;BMP180;16737;50.932;6.780;2023-10-31T14:16:47;99071.00;;;19.60
9985;BMP180;16737;50.932;6.780;2023-10-31T14:19:15;99073.00;;;19.60
9985;BMP180;16737;50.932;6.780;2023-10-31T14:21:43;99064.00;;;19.60
9985;BMP180;16737;50.932;6.780;2023-10-31T14:24:10;99074.00;;;19.60
9985;BMP180;16737;50.932;6.780;2023-10-31T14:26:37;99081.00;;;19.60
9985;BMP180;16737;50.932;6.780;2023-10-31T14:29:06;99078.00;;;19.60
9985;BMP180;16737;50.932;6.780;2023-10-31T14:31:39;99087.00;;;19.60
9985;BMP180;16737;50.932;6.780;2023-10-31T14:34:08;99082.00;;;19.60